KBJJ/BJJ METAR and TAF weather

Enter ICAO airport designator
Station Type Date Time Source
KBJJ METAR 2021/07/26 15:56 UTC NOAA

KBJJ 261556Z AUTO 33007KT 10SM CLR 28/14 A3003 RMK AO2 SLP162 T02830144


Station Type Date Time Source
KBJJ Decoded METAR 2021/07/26 15:56 UTC NOAA

WOOSTER WAYNE COUNTY AIRPORT, OH, United States (KBJJ) 40-52N 81-53W 343M
Jul 26, 2021 - 11:56 AM EDT / 2021.07.26 1556 UTC
Wind: from the NNW (330 degrees) at 8 MPH (7 KT):0
Visibility: 10 mile(s):0
Sky conditions: clear
Temperature: 82.9 F (28.3 C)
Dew Point: 57.9 F (14.4 C)
Relative Humidity: 42%
Pressure (altimeter): 30.03 in. Hg (1016 hPa)
ob: KBJJ 261556Z AUTO 33007KT 10SM CLR 28/14 A3003 RMK AO2 SLP162 T02830144
cycle: 16

Station Type Date Time Source
KBJJ TAF UTC NOAA

Error!

Example: see airport list